Crouch, Illinois
Current Conditions -  °F | °C
As of 4:35 PM on Friday 19 Dec 2014 (Local Time) from KFWC Reporting Station
Clear Clear  
Wind Chill: 34°   Ceiling: Unl
Heat Index: 34°   Visibility: 7mi
Dew Point: 25°   Wind: 3mph
Humidity: 71%   Direction: 20°NNE
Pressure: 30.27"   Gusts: NA
Location:  38.3069°N, 88.55°W
Report Text: KFWC 192235Z AUTO 02003KT 7SM CLR 01/M04 A3027 RMK AO1 T00091038
Loading
Personal Weather Stations






























Interactive Weather Map New forecast layout! Learn more

10-Day Weather Forecast

Advertisements
Track Severe Weather on mobile